Time;durP1;ratioP1;P1;durP2;ratioP2;P2;SDS_P1;SDS_P2;PMS_P1;PMS_P2;Temp;Humidity;BMP_temperature;BMP_pressure;BME280_temperature;BME280_humidity;BME280_pressure;Samples;Min_cycle;Max_cycle;Signal;HPM_P1;HPM_P2
2023/07/30 00:01:42;;;;;;;8.25;1.92;;;16.60;99.90;;;;;;5092657;28;20039;-74
2023/07/30 00:04:07;;;;;;;1.08;0.65;;;16.50;99.90;;;;;;5092899;28;20107;-74
2023/07/30 00:06:33;;;;;;;2.10;1.55;;;16.40;99.90;;;;;;5092772;28;20036;-75
2023/07/30 00:08:59;;;;;;;0.10;0.10;;;16.30;99.90;;;;;;5091556;28;20028;-73
2023/07/30 00:11:24;;;;;;;1.30;0.85;;;16.40;99.90;;;;;;5092971;28;20032;-73
2023/07/30 00:13:50;;;;;;;0.13;0.13;;;16.40;99.90;;;;;;5092735;28;20036;-75
2023/07/30 00:16:16;;;;;;;0.10;0.10;;;16.40;99.90;;;;;;5092626;28;20052;-74
2023/07/30 00:18:41;;;;;;;0.20;0.20;;;16.30;99.90;;;;;;5092587;28;20036;-75
2023/07/30 00:21:07;;;;;;;1.25;0.75;;;16.30;99.90;;;;;;5092846;28;20016;-74
2023/07/30 00:23:33;;;;;;;3.67;1.60;;;16.40;99.90;;;;;;5092583;28;20349;-74
2023/07/30 00:25:58;;;;;;;0.30;0.30;;;16.40;99.90;;;;;;5092895;28;20107;-75
2023/07/30 00:28:24;;;;;;;1.95;1.00;;;16.30;99.90;;;;;;5092491;28;20032;-75
2023/07/30 00:30:50;;;;;;;0.10;0.10;;;16.30;99.90;;;;;;5074256;28;20013;-75
2023/07/30 00:33:16;;;;;;;1.00;0.90;;;16.40;99.90;;;;;;5093126;28;20028;-75
2023/07/30 00:35:41;;;;;;;0.30;0.30;;;16.60;99.90;;;;;;5091121;28;20027;-74
2023/07/30 00:38:07;;;;;;;0.10;0.10;;;16.40;99.90;;;;;;5091313;28;20024;-75
2023/07/30 00:40:38;;;;;;;0.13;0.13;;;16.60;99.90;;;;;;5091213;28;20035;-74
2023/07/30 00:43:04;;;;;;;1.95;0.68;;;16.60;99.90;;;;;;5092661;28;20020;-75
2023/07/30 00:45:30;;;;;;;1.77;0.50;;;16.60;99.90;;;;;;5092166;28;20024;-74
2023/07/30 00:47:56;;;;;;;4.15;1.08;;;16.30;99.90;;;;;;5082335;28;20021;-74
2023/07/30 00:50:22;;;;;;;1.55;0.45;;;16.20;99.90;;;;;;5085887;28;20030;-74
2023/07/30 00:52:48;;;;;;;1.73;1.15;;;16.20;99.90;;;;;;5091149;28;20056;-75
2023/07/30 00:55:15;;;;;;;3.47;1.10;;;16.30;99.90;;;;;;5093762;28;20503;-75
2023/07/30 00:57:42;;;;;;;6.38;1.08;;;16.30;99.90;;;;;;5096051;28;20013;-74
2023/07/30 01:00:09;;;;;;;0.52;0.40;;;16.20;99.90;;;;;;5094660;28;20029;-75
2023/07/30 01:02:38;;;;;;;3.40;1.08;;;16.10;99.90;;;;;;5096074;28;20361;-75
2023/07/30 01:05:04;;;;;;;0.90;0.90;;;16.20;99.90;;;;;;5096180;28;20103;-74
2023/07/30 01:07:31;;;;;;;3.03;0.45;;;16.20;99.90;;;;;;5096130;28;20024;-75
2023/07/30 01:09:57;;;;;;;0.13;0.13;;;16.10;99.90;;;;;;5096148;28;20175;-75
2023/07/30 01:12:23;;;;;;;1.85;1.02;;;16.10;99.90;;;;;;5094777;28;20127;-74
2023/07/30 01:14:50;;;;;;;4.38;1.98;;;16.00;99.90;;;;;;5094226;28;20035;-74
2023/07/30 01:17:16;;;;;;;1.02;0.70;;;15.90;99.90;;;;;;5094598;28;20017;-74
2023/07/30 01:19:43;;;;;;;0.03;0.03;;;16.00;99.90;;;;;;5095656;28;20035;-75
2023/07/30 01:22:09;;;;;;;2.35;0.93;;;16.10;99.90;;;;;;5094684;28;20388;-75
2023/07/30 01:24:35;;;;;;;0.80;0.38;;;16.10;99.90;;;;;;5095542;28;20039;-74
2023/07/30 01:27:05;;;;;;;0.00;0.00;;;16.30;99.90;;;;;;5094571;28;20020;-74
2023/07/30 01:29:34;;;;;;;3.60;1.80;;;16.30;99.90;;;;;;5093928;28;20028;-74
2023/07/30 01:32:06;;;;;;;2.17;0.47;;;16.10;99.90;;;;;;5091470;28;20568;-73
2023/07/30 01:34:34;;;;;;;;;;;15.90;99.90;;;;;;5074273;28;20029;-74
2023/07/30 01:37:00;;;;;;;0.30;0.30;;;16.10;99.90;;;;;;5077489;28;19910;-75
2023/07/30 01:39:27;;;;;;;0.93;0.45;;;16.00;99.90;;;;;;5088557;28;20106;-74
2023/07/30 01:41:56;;;;;;;0.10;0.10;;;15.90;99.90;;;;;;5080455;28;20056;-74
2023/07/30 01:44:22;;;;;;;0.00;0.00;;;16.00;99.90;;;;;;5087839;28;20060;-74
2023/07/30 01:46:48;;;;;;;4.45;0.82;;;16.10;99.90;;;;;;5087111;28;20062;-74
2023/07/30 01:49:13;;;;;;;0.28;0.17;;;16.10;99.90;;;;;;5090389;28;20067;-75
2023/07/30 01:51:39;;;;;;;0.10;0.10;;;16.00;99.90;;;;;;5083417;28;20073;-74
2023/07/30 01:54:05;;;;;;;0.10;0.10;;;16.00;99.90;;;;;;5093922;28;20044;-74
2023/07/30 01:56:30;;;;;;;6.30;2.00;;;16.20;99.90;;;;;;5095113;28;20024;-75
2023/07/30 01:58:57;;;;;;;0.45;0.45;;;16.10;99.90;;;;;;5093593;28;20446;-74
2023/07/30 02:01:22;;;;;;;0.17;0.17;;;16.00;99.90;;;;;;5093488;28;20012;-74
2023/07/30 02:03:48;;;;;;;1.65;0.73;;;15.80;99.90;;;;;;5095066;28;20028;-75
2023/07/30 02:06:15;;;;;;;0.05;0.05;;;15.80;99.90;;;;;;5089689;28;20040;-74
2023/07/30 02:08:41;;;;;;;0.20;0.20;;;15.80;99.90;;;;;;5084063;28;20032;-75
2023/07/30 02:11:06;;;;;;;1.55;0.98;;;15.70;99.90;;;;;;5093250;28;20520;-74
2023/07/30 02:13:32;;;;;;;1.83;0.15;;;15.80;99.90;;;;;;5083749;28;20503;-74
2023/07/30 02:15:58;;;;;;;1.00;1.00;;;15.90;99.90;;;;;;5076252;28;20056;-74
2023/07/30 02:18:23;;;;;;;3.22;0.47;;;16.00;99.90;;;;;;5074092;28;20510;-75
2023/07/30 02:20:49;;;;;;;1.17;1.17;;;16.10;99.90;;;;;;5072859;28;20058;-74
2023/07/30 02:23:18;;;;;;;0.10;0.10;;;16.10;99.90;;;;;;5072990;28;20070;-75
2023/07/30 02:25:44;;;;;;;0.20;0.20;;;16.10;99.90;;;;;;5072634;28;20016;-75
2023/07/30 02:28:10;;;;;;;9.18;1.73;;;16.20;99.90;;;;;;5074332;28;20381;-74
2023/07/30 02:30:36;;;;;;;3.08;2.22;;;16.00;99.90;;;;;;5074237;28;20029;-74
2023/07/30 02:33:02;;;;;;;0.10;0.10;;;15.90;99.90;;;;;;5072905;28;20032;-74
2023/07/30 02:35:27;;;;;;;4.28;0.82;;;15.90;99.90;;;;;;5073872;28;20028;-74
2023/07/30 02:37:53;;;;;;;0.10;0.10;;;15.90;99.90;;;;;;5073980;28;20370;-75
2023/07/30 02:40:19;;;;;;;1.02;0.65;;;16.10;99.90;;;;;;5073663;28;20027;-75
2023/07/30 02:42:44;;;;;;;7.40;2.75;;;16.00;99.90;;;;;;5081428;28;20130;-75
2023/07/30 02:45:10;;;;;;;0.00;0.00;;;16.00;99.90;;;;;;5076445;28;20012;-74
2023/07/30 02:47:36;;;;;;;3.78;1.00;;;16.20;99.90;;;;;;5094286;28;20415;-74
2023/07/30 02:50:04;;;;;;;1.75;0.82;;;16.20;99.90;;;;;;5093092;28;20085;-74
2023/07/30 02:52:29;;;;;;;7.53;0.85;;;16.00;99.90;;;;;;5094004;28;20077;-74
2023/07/30 02:54:58;;;;;;;1.08;0.50;;;16.00;99.90;;;;;;5093658;28;20468;-74
2023/07/30 02:57:24;;;;;;;4.53;1.17;;;16.10;99.90;;;;;;5092633;28;20020;-75
2023/07/30 02:59:50;;;;;;;0.03;0.03;;;15.90;99.90;;;;;;5093984;28;20372;-74
2023/07/30 03:02:15;;;;;;;2.42;0.80;;;15.80;99.90;;;;;;5092303;28;20453;-75
2023/07/30 03:04:41;;;;;;;0.10;0.10;;;16.00;99.90;;;;;;5092639;28;20024;-75
2023/07/30 03:07:07;;;;;;;1.33;1.02;;;15.90;99.90;;;;;;5093702;28;20396;-74
2023/07/30 03:09:33;;;;;;;7.90;2.17;;;16.00;99.90;;;;;;5093350;28;20027;-74
2023/07/30 03:11:59;;;;;;;1.23;0.80;;;15.90;99.90;;;;;;5093609;28;20028;-74
2023/07/30 03:14:25;;;;;;;1.45;0.22;;;15.70;99.90;;;;;;5092285;28;20072;-74
2023/07/30 03:16:51;;;;;;;0.20;0.20;;;15.70;99.90;;;;;;5092753;28;20368;-74
2023/07/30 03:19:17;;;;;;;1.02;0.80;;;15.90;99.90;;;;;;5092306;28;20020;-74
2023/07/30 03:21:42;;;;;;;4.75;2.28;;;15.80;99.90;;;;;;5093580;28;20133;-74
2023/07/30 03:24:08;;;;;;;8.27;0.50;;;15.80;99.90;;;;;;5093279;28;20415;-75
2023/07/30 03:26:34;;;;;;;0.10;0.10;;;15.90;99.90;;;;;;5091978;28;20020;-74
2023/07/30 03:29:00;;;;;;;1.67;0.57;;;15.80;99.90;;;;;;5092234;28;20028;-74
2023/07/30 03:31:28;;;;;;;0.00;0.00;;;15.70;99.90;;;;;;5092107;28;20020;-75
2023/07/30 03:33:54;;;;;;;2.17;1.58;;;15.80;99.90;;;;;;5093091;28;20078;-75
2023/07/30 03:36:20;;;;;;;0.52;0.35;;;15.80;99.90;;;;;;5093261;28;20089;-74
2023/07/30 03:38:46;;;;;;;7.35;1.67;;;16.00;99.90;;;;;;5092925;28;20463;-73
2023/07/30 03:41:12;;;;;;;1.15;0.38;;;15.90;99.90;;;;;;5081956;28;20039;-74
2023/07/30 03:43:37;;;;;;;6.95;1.15;;;15.90;99.90;;;;;;5088984;28;20045;-74
2023/07/30 03:46:03;;;;;;;5.15;1.48;;;16.00;99.90;;;;;;5093264;28;20035;-74
2023/07/30 03:48:30;;;;;;;1.85;1.65;;;15.80;99.90;;;;;;5091611;28;20043;-73
2023/07/30 03:50:56;;;;;;;12.90;1.67;;;15.80;99.90;;;;;;5093204;28;20055;-74
2023/07/30 03:53:22;;;;;;;0.00;0.00;;;15.90;99.90;;;;;;5092817;28;20028;-75
2023/07/30 03:55:48;;;;;;;12.80;0.77;;;15.90;99.90;;;;;;5091789;28;20419;-74
2023/07/30 03:58:14;;;;;;;18.88;2.63;;;16.10;99.90;;;;;;5091633;28;20057;-75
2023/07/30 04:00:40;;;;;;;0.98;0.65;;;16.00;99.90;;;;;;5091684;28;20377;-74
2023/07/30 04:03:06;;;;;;;0.00;0.00;;;16.10;99.90;;;;;;5092838;28;20036;-74
2023/07/30 04:05:31;;;;;;;0.00;0.00;;;16.20;99.90;;;;;;5091572;28;20032;-74
2023/07/30 04:07:57;;;;;;;0.32;0.10;;;16.00;99.90;;;;;;5092274;28;20035;-74
2023/07/30 04:10:23;;;;;;;7.43;2.83;;;16.00;99.90;;;;;;5091494;28;20031;-73
2023/07/30 04:12:49;;;;;;;0.03;0.03;;;15.90;99.90;;;;;;5091892;28;20112;-74
2023/07/30 04:15:16;;;;;;;6.50;1.00;;;16.00;99.90;;;;;;5092713;28;20064;-74
2023/07/30 04:17:41;;;;;;;1.48;1.35;;;15.90;99.90;;;;;;5092467;28;20032;-74
2023/07/30 04:20:09;;;;;;;0.57;0.57;;;15.90;99.90;;;;;;5091552;28;20066;-74
2023/07/30 04:22:41;;;;;;;3.20;0.90;;;15.80;99.90;;;;;;5091077;28;20025;-74
2023/07/30 04:25:07;;;;;;;4.07;0.95;;;15.90;99.90;;;;;;5091513;28;20028;-74
2023/07/30 04:27:34;;;;;;;0.10;0.10;;;16.00;99.90;;;;;;5091472;28;20021;-72
2023/07/30 04:30:00;;;;;;;3.30;0.85;;;16.00;99.90;;;;;;5095161;28;20392;-74
2023/07/30 04:32:25;;;;;;;6.90;0.73;;;15.90;99.90;;;;;;5095721;28;20028;-74
2023/07/30 04:34:51;;;;;;;2.00;0.68;;;15.90;99.90;;;;;;5078443;28;20036;-74
2023/07/30 04:37:17;;;;;;;5.88;1.85;;;15.80;99.90;;;;;;5095076;28;20024;-73
2023/07/30 04:39:43;;;;;;;11.25;1.60;;;15.80;99.90;;;;;;5096504;28;20020;-74
2023/07/30 04:42:09;;;;;;;15.25;2.60;;;15.80;99.90;;;;;;5081056;28;20361;-74
2023/07/30 04:44:34;;;;;;;2.72;1.00;;;15.80;99.90;;;;;;5095217;28;20027;-75
2023/07/30 04:47:08;;;;;;;0.70;0.70;;;15.90;99.90;;;;;;5095094;28;20028;-74
2023/07/30 04:49:34;;;;;;;11.77;1.80;;;15.80;99.90;;;;;;5095050;28;20541;-74
2023/07/30 04:52:00;;;;;;;1.05;1.05;;;16.00;99.90;;;;;;5078032;28;20047;-74
2023/07/30 04:54:26;;;;;;;0.10;0.10;;;16.00;99.90;;;;;;5095092;28;20064;-75
2023/07/30 04:56:52;;;;;;;0.57;0.45;;;16.10;99.90;;;;;;5094892;28;20114;-74
2023/07/30 04:59:17;;;;;;;2.53;1.95;;;16.20;99.90;;;;;;5094786;28;20032;-75
2023/07/30 05:01:43;;;;;;;3.92;1.13;;;16.10;99.90;;;;;;5083671;28;20020;-74
2023/07/30 05:04:09;;;;;;;3.45;1.35;;;16.00;99.90;;;;;;5089459;28;20495;-74
2023/07/30 05:06:34;;;;;;;2.80;1.27;;;16.00;99.90;;;;;;5072340;28;20040;-74
2023/07/30 05:09:00;;;;;;;0.10;0.10;;;15.90;99.90;;;;;;5075538;28;20027;-74
2023/07/30 05:11:26;;;;;;;0.25;0.25;;;16.00;99.90;;;;;;5075701;28;20114;-74
2023/07/30 05:13:51;;;;;;;0.32;0.32;;;16.00;99.90;;;;;;5075528;28;20055;-75
2023/07/30 05:16:17;;;;;;;14.38;2.53;;;16.20;99.90;;;;;;5075405;28;20035;-75
2023/07/30 05:18:44;;;;;;;0.17;0.10;;;16.10;99.90;;;;;;5074320;28;20051;-72
2023/07/30 05:21:10;;;;;;;8.40;1.48;;;16.00;99.90;;;;;;5075289;28;20457;-75
2023/07/30 05:23:36;;;;;;;1.65;0.75;;;16.00;99.90;;;;;;5075565;28;20092;-74
2023/07/30 05:26:01;;;;;;;5.40;0.47;;;15.80;99.90;;;;;;5075239;28;20477;-74
2023/07/30 05:28:27;;;;;;;20.40;2.13;;;16.10;99.90;;;;;;5075336;28;20024;-74
2023/07/30 05:30:53;;;;;;;1.10;0.90;;;16.20;99.90;;;;;;5075264;28;20052;-74
2023/07/30 05:33:18;;;;;;;10.80;0.95;;;16.20;99.90;;;;;;5075102;28;20039;-75
2023/07/30 05:35:45;;;;;;;4.95;1.50;;;16.10;99.90;;;;;;5074825;28;20036;-74
2023/07/30 05:38:11;;;;;;;17.35;1.52;;;16.20;99.90;;;;;;5075011;28;20025;-74
2023/07/30 05:40:37;;;;;;;19.98;3.13;;;16.20;99.90;;;;;;5074104;28;20027;-74
2023/07/30 05:43:04;;;;;;;13.32;3.38;;;16.20;99.90;;;;;;5086556;28;20106;-74
2023/07/30 05:45:29;;;;;;;3.22;0.77;;;16.10;99.90;;;;;;5095304;28;20073;-74
2023/07/30 05:47:55;;;;;;;14.10;1.77;;;16.10;99.90;;;;;;5095286;28;20416;-74
2023/07/30 05:50:21;;;;;;;7.05;2.00;;;16.20;99.90;;;;;;5094895;28;20047;-74
2023/07/30 05:52:46;;;;;;;0.22;0.20;;;16.20;99.90;;;;;;5095380;28;20020;-74
2023/07/30 05:55:12;;;;;;;10.18;3.08;;;16.20;99.90;;;;;;5095099;28;20404;-75
2023/07/30 05:57:38;;;;;;;0.60;0.43;;;16.10;99.90;;;;;;5095009;28;20376;-77
2023/07/30 06:00:04;;;;;;;5.60;1.25;;;16.20;99.90;;;;;;5093832;28;20035;-75
2023/07/30 06:02:37;;;;;;;3.55;1.38;;;16.30;99.90;;;;;;5088459;28;20070;-74
2023/07/30 06:05:03;;;;;;;9.02;0.85;;;16.50;99.90;;;;;;5085520;28;20039;-75
2023/07/30 06:07:29;;;;;;;1.80;1.67;;;16.50;99.90;;;;;;5074542;28;20031;-74
2023/07/30 06:09:55;;;;;;;8.10;2.55;;;16.40;99.90;;;;;;5077521;28;20108;-73
2023/07/30 06:12:20;;;;;;;3.40;1.38;;;16.30;99.90;;;;;;5074779;28;20035;-75
2023/07/30 06:14:46;;;;;;;4.80;1.77;;;16.50;99.90;;;;;;5084108;28;20040;-75
2023/07/30 06:17:12;;;;;;;4.35;1.98;;;16.70;99.90;;;;;;5078312;28;20021;-75
2023/07/30 06:19:38;;;;;;;11.35;2.78;;;16.60;99.90;;;;;;5073121;28;20024;-77
2023/07/30 06:22:04;;;;;;;14.05;1.75;;;16.70;99.90;;;;;;5074977;28;20487;-74
2023/07/30 06:24:29;;;;;;;1.30;0.98;;;16.70;99.90;;;;;;5074300;28;20101;-74
2023/07/30 06:26:55;;;;;;;2.38;1.75;;;16.80;99.90;;;;;;5065824;28;20023;-74
2023/07/30 06:29:21;;;;;;;3.65;1.08;;;16.80;99.90;;;;;;5074186;28;20059;-74
2023/07/30 06:31:46;;;;;;;10.65;0.47;;;16.80;99.90;;;;;;5077076;28;20020;-74
2023/07/30 06:34:12;;;;;;;4.40;1.40;;;17.00;99.90;;;;;;5077971;28;20507;-75
2023/07/30 06:36:38;;;;;;;5.70;1.85;;;16.80;99.90;;;;;;5083892;28;20025;-74
2023/07/30 06:39:04;;;;;;;0.10;0.10;;;16.80;99.90;;;;;;5080981;28;20076;-74
2023/07/30 06:41:29;;;;;;;0.65;0.65;;;16.90;99.90;;;;;;5081570;28;20028;-74
2023/07/30 06:43:55;;;;;;;4.80;0.63;;;17.10;99.90;;;;;;5093197;28;20012;-74
2023/07/30 06:46:21;;;;;;;1.52;1.13;;;17.10;99.90;;;;;;5091929;28;20080;-74
2023/07/30 06:48:46;;;;;;;16.63;1.17;;;17.20;99.90;;;;;;5092657;28;20055;-74
2023/07/30 06:51:13;;;;;;;13.30;2.13;;;17.10;99.90;;;;;;5085754;28;20020;-75
2023/07/30 06:53:39;;;;;;;2.40;0.60;;;17.30;99.90;;;;;;5092666;28;20186;-75
2023/07/30 06:56:05;;;;;;;0.95;0.30;;;17.40;99.90;;;;;;5092814;28;20503;-75
2023/07/30 06:58:31;;;;;;;17.23;2.67;;;17.40;99.90;;;;;;5092813;28;20040;-75
2023/07/30 07:00:56;;;;;;;27.45;3.35;;;17.20;99.90;;;;;;5092003;28;20099;-76
2023/07/30 07:03:22;;;;;;;4.75;1.55;;;17.30;99.90;;;;;;5082558;28;20028;-75
2023/07/30 07:05:55;;;;;;;28.65;4.00;;;17.40;99.90;;;;;;5092326;28;20032;-75
2023/07/30 07:08:21;;;;;;;9.95;2.38;;;17.40;99.90;;;;;;5092568;28;20479;-74
2023/07/30 07:10:47;;;;;;;0.65;0.35;;;17.40;99.90;;;;;;5092536;28;20085;-75
2023/07/30 07:13:15;;;;;;;0.57;0.50;;;17.40;99.90;;;;;;5092674;28;20411;-76
2023/07/30 07:15:44;;;;;;;0.80;0.30;;;17.60;99.90;;;;;;5092202;28;20036;-75
2023/07/30 07:18:10;;;;;;;5.55;1.42;;;17.70;99.90;;;;;;5086755;28;20032;-75
2023/07/30 07:20:37;;;;;;;4.60;0.73;;;17.50;99.90;;;;;;5092548;28;20358;-75
2023/07/30 07:23:03;;;;;;;0.47;0.40;;;17.70;99.90;;;;;;5092263;28;20040;-75
2023/07/30 07:25:29;;;;;;;1.42;1.13;;;17.80;99.90;;;;;;5092589;28;20496;-73
2023/07/30 07:27:55;;;;;;;8.90;1.95;;;17.90;99.90;;;;;;5092011;28;20114;-73
2023/07/30 07:30:20;;;;;;;13.93;2.60;;;17.70;99.90;;;;;;5092200;28;20476;-73
2023/07/30 07:32:50;;;;;;;14.20;3.22;;;17.70;99.90;;;;;;5091189;28;20028;-73
2023/07/30 07:35:18;;;;;;;7.22;1.13;;;17.60;99.90;;;;;;5092325;28;20040;-73
2023/07/30 07:37:44;;;;;;;1.75;0.95;;;17.80;99.90;;;;;;5091903;28;20024;-74
2023/07/30 07:40:10;;;;;;;1.85;0.22;;;18.00;99.90;;;;;;5090613;28;20021;-74
2023/07/30 07:42:37;;;;;;;8.68;0.85;;;18.30;99.90;;;;;;5089905;28;20020;-77
2023/07/30 07:45:03;;;;;;;9.70;1.35;;;18.50;99.90;;;;;;5091872;28;20032;-76
2023/07/30 07:47:29;;;;;;;10.43;0.77;;;18.80;99.90;;;;;;5089357;28;20024;-77
2023/07/30 07:49:55;;;;;;;0.75;0.52;;;18.90;99.90;;;;;;5090823;28;20377;-72
2023/07/30 07:52:20;;;;;;;14.88;1.73;;;19.10;99.90;;;;;;5091721;28;20066;-77
2023/07/30 07:54:47;;;;;;;6.00;1.35;;;18.80;99.90;;;;;;5089444;28;20047;-72
2023/07/30 07:57:14;;;;;;;8.63;0.98;;;18.50;99.90;;;;;;5090463;28;20034;-74
2023/07/30 07:59:41;;;;;;;8.82;2.15;;;18.70;99.90;;;;;;5090158;28;20354;-72
2023/07/30 08:02:07;;;;;;;1.38;0.35;;;18.50;99.90;;;;;;5088142;28;20035;-72
2023/07/30 08:04:33;;;;;;;14.40;2.00;;;18.60;99.90;;;;;;5074089;28;20031;-72
2023/07/30 08:07:03;;;;;;;2.22;0.73;;;18.50;99.90;;;;;;5084172;28;20016;-73
2023/07/30 08:09:29;;;;;;;0.70;0.35;;;18.60;99.90;;;;;;5076289;28;20063;-73
2023/07/30 08:11:55;;;;;;;2.25;1.15;;;18.60;99.90;;;;;;5076269;28;20568;-72
2023/07/30 08:14:21;;;;;;;10.90;1.33;;;18.70;99.90;;;;;;5072276;28;20042;-72
2023/07/30 08:16:47;;;;;;;7.88;1.63;;;19.00;99.90;;;;;;5084853;28;20095;-73
2023/07/30 08:19:13;;;;;;;11.63;1.73;;;18.90;99.90;;;;;;5081823;28;20032;-72
2023/07/30 08:21:38;;;;;;;0.82;0.60;;;19.10;99.90;;;;;;5080437;28;20184;-74
2023/07/30 08:24:04;;;;;;;1.17;0.32;;;19.30;99.90;;;;;;5071763;28;20024;-74
2023/07/30 08:26:31;;;;;;;5.68;1.35;;;19.20;99.90;;;;;;5072170;28;20115;-75
2023/07/30 08:28:57;;;;;;;1.52;0.38;;;18.70;99.90;;;;;;5084178;28;20027;-74
2023/07/30 08:31:23;;;;;;;4.45;0.85;;;18.70;99.90;;;;;;5077570;28;20107;-72
2023/07/30 08:33:48;;;;;;;0.22;0.15;;;19.00;99.90;;;;;;5073124;28;20397;-74
2023/07/30 08:36:14;;;;;;;6.45;0.40;;;19.00;99.90;;;;;;5073547;28;20020;-73
2023/07/30 08:38:40;;;;;;;2.55;0.57;;;19.20;99.90;;;;;;5084768;28;20048;-73
2023/07/30 08:41:06;;;;;;;19.08;2.65;;;19.20;99.90;;;;;;5083670;28;20073;-73
2023/07/30 08:43:32;;;;;;;6.72;1.77;;;19.30;99.90;;;;;;5089324;28;20494;-73
2023/07/30 08:45:59;;;;;;;5.45;0.77;;;19.40;99.90;;;;;;5091421;28;20020;-74
2023/07/30 08:48:26;;;;;;;9.57;1.25;;;19.50;99.90;;;;;;5091232;28;20020;-73
2023/07/30 08:50:52;;;;;;;3.25;1.10;;;19.40;99.90;;;;;;5079281;28;20032;-71
2023/07/30 08:53:18;;;;;;;3.53;2.40;;;19.30;99.90;;;;;;5091270;28;20039;-72
2023/07/30 08:55:46;;;;;;;1.10;0.90;;;19.40;99.90;;;;;;5090650;28;20142;-72
2023/07/30 08:58:13;;;;;;;5.05;0.60;;;19.30;99.90;;;;;;5089824;28;20032;-71
2023/07/30 09:00:42;;;;;;;5.63;1.30;;;19.50;99.90;;;;;;5075006;28;20117;-74
2023/07/30 09:03:08;;;;;;;3.38;0.63;;;19.70;99.90;;;;;;5061506;28;20037;-72
2023/07/30 09:05:34;;;;;;;4.72;1.35;;;19.60;99.90;;;;;;5070942;28;20035;-73
2023/07/30 09:08:00;;;;;;;1.55;0.43;;;19.30;99.90;;;;;;5071897;28;20013;-74
2023/07/30 09:10:26;;;;;;;3.55;1.23;;;19.30;99.90;;;;;;5071267;28;20495;-74
2023/07/30 09:13:00;;;;;;;10.52;1.00;;;19.40;99.90;;;;;;5069623;28;20334;-75
2023/07/30 09:15:39;;;;;;;1.15;0.90;;;19.50;99.90;;;;;;5072508;28;20045;-74
2023/07/30 09:18:07;;;;;;;5.45;0.85;;;19.70;99.90;;;;;;5081904;28;20033;-74
2023/07/30 09:20:40;;;;;;;10.30;1.75;;;19.70;99.90;;;;;;5077214;28;20036;-71
2023/07/30 09:23:07;;;;;;;3.25;1.83;;;19.80;99.90;;;;;;5077361;28;20097;-74
2023/07/30 09:25:33;;;;;;;2.50;0.95;;;19.90;99.90;;;;;;5084371;28;20102;-74
2023/07/30 09:27:59;;;;;;;8.60;1.63;;;20.00;99.90;;;;;;5077525;28;20025;-74
2023/07/30 09:30:27;;;;;;;2.20;0.28;;;19.70;99.90;;;;;;5067642;28;20025;-72
2023/07/30 09:32:57;;;;;;;9.00;0.98;;;19.70;99.90;;;;;;5076876;28;20485;-75
2023/07/30 09:35:24;;;;;;;0.22;0.08;;;19.80;99.90;;;;;;5077621;28;20082;-71
2023/07/30 09:38:04;;;;;;;5.63;0.80;;;19.70;99.90;;;;;;5082671;28;20016;-72
2023/07/30 09:40:36;;;;;;;2.90;1.02;;;19.70;99.90;;;;;;5080014;28;20412;-72
2023/07/30 09:43:06;;;;;;;6.13;0.47;;;20.10;99.90;;;;;;5092950;28;20115;-72
2023/07/30 09:45:36;;;;;;;0.32;0.20;;;20.30;99.90;;;;;;5093947;28;20015;-73
2023/07/30 09:48:04;;;;;;;0.43;0.40;;;20.20;99.90;;;;;;5093987;28;20027;-73
2023/07/30 09:50:31;;;;;;;4.18;0.85;;;20.40;99.90;;;;;;5090273;28;20062;-72
2023/07/30 09:53:01;;;;;;;0.75;0.43;;;20.40;99.90;;;;;;5092830;28;20024;-74
2023/07/30 09:55:27;;;;;;;1.20;0.32;;;20.60;99.90;;;;;;5092441;28;20443;-74
2023/07/30 09:57:52;;;;;;;1.20;0.13;;;20.90;99.90;;;;;;5093804;28;20103;-74
2023/07/30 10:00:19;;;;;;;0.77;0.40;;;21.20;99.90;;;;;;5093814;28;20028;-74
2023/07/30 10:02:49;;;;;;;0.10;0.10;;;21.20;99.90;;;;;;5093742;28;20119;-75
2023/07/30 10:05:17;;;;;;;3.35;0.88;;;20.60;99.90;;;;;;5085617;28;20059;-74
2023/07/30 10:07:53;;;;;;;9.75;1.15;;;20.60;99.90;;;;;;5093590;28;20375;-74
2023/07/30 10:10:20;;;;;;;1.23;1.02;;;20.60;99.90;;;;;;5093209;28;20085;-76
2023/07/30 10:12:47;;;;;;;4.28;0.65;;;20.80;99.90;;;;;;5093641;28;20085;-77
2023/07/30 10:15:13;;;;;;;0.10;0.10;;;21.00;99.90;;;;;;5093524;28;20068;-75
2023/07/30 10:17:39;;;;;;;11.52;1.73;;;21.40;99.90;;;;;;5093239;28;20120;-74
2023/07/30 10:20:22;;;;;;;2.67;0.98;;;21.50;99.90;;;;;;5093618;28;20024;-75
2023/07/30 10:22:55;;;;;;;0.90;0.52;;;21.80;99.90;;;;;;5092098;28;20055;-75
2023/07/30 10:25:22;;;;;;;0.65;0.38;;;21.70;99.90;;;;;;5093069;28;20063;-75
2023/07/30 10:27:50;;;;;;;2.90;0.52;;;21.60;99.90;;;;;;5092672;28;20012;-74
2023/07/30 10:30:19;;;;;;;8.27;1.05;;;21.80;99.90;;;;;;5093380;28;20034;-75
2023/07/30 10:32:59;;;;;;;0.38;0.10;;;21.40;99.90;;;;;;5092486;28;20032;-75
2023/07/30 10:35:48;;;;;;;0.40;0.40;;;21.50;99.90;;;;;;5092766;28;20036;-74
2023/07/30 10:38:27;;;;;;;7.85;2.10;;;22.10;99.90;;;;;;5087423;28;20024;-74
2023/07/30 10:40:59;;;;;;;6.13;0.40;;;22.70;99.90;;;;;;5083639;28;20492;-75
2023/07/30 10:43:49;;;;;;;1.85;0.60;;;22.20;99.90;;;;;;5092644;28;20081;-74
2023/07/30 10:46:17;;;;;;;1.55;1.05;;;21.60;99.90;;;;;;5092510;28;20048;-75
2023/07/30 10:48:45;;;;;;;0.88;0.68;;;21.40;99.90;;;;;;5092771;28;20016;-74
2023/07/30 10:51:13;;;;;;;0.05;0.05;;;21.30;99.90;;;;;;5092657;28;20564;-74
2023/07/30 10:53:42;;;;;;;2.53;1.27;;;21.50;99.90;;;;;;5089326;28;20480;-74
2023/07/30 10:56:09;;;;;;;0.32;0.32;;;21.30;99.90;;;;;;5080964;28;20071;-73
2023/07/30 10:58:36;;;;;;;1.85;0.57;;;20.60;99.90;;;;;;5079435;28;20112;-73
2023/07/30 11:01:06;;;;;;;0.55;0.43;;;20.80;99.90;;;;;;5073509;28;20021;-72
2023/07/30 11:03:32;;;;;;;0.55;0.52;;;21.10;99.90;;;;;;5087779;28;20078;-74
2023/07/30 11:05:59;;;;;;;1.08;0.63;;;21.30;99.90;;;;;;5082303;28;20104;-72
2023/07/30 11:08:39;;;;;;;6.50;1.15;;;21.30;99.90;;;;;;5088023;28;20050;-72
2023/07/30 11:11:07;;;;;;;4.72;0.57;;;21.40;99.90;;;;;;5073694;28;20073;-75
2023/07/30 11:13:46;;;;;;;2.17;0.75;;;21.40;99.90;;;;;;5072054;28;20089;-74
2023/07/30 11:16:12;;;;;;;5.60;0.88;;;21.80;99.90;;;;;;5077055;28;20037;-73
2023/07/30 11:18:38;;;;;;;0.47;0.17;;;22.20;99.90;;;;;;5077236;28;20077;-73
2023/07/30 11:21:07;;;;;;;1.20;0.20;;;22.30;99.90;;;;;;5080202;28;20444;-75
2023/07/30 11:23:36;;;;;;;3.33;0.85;;;22.30;99.90;;;;;;5073210;28;20035;-73
2023/07/30 11:26:04;;;;;;;1.25;0.20;;;22.30;99.90;;;;;;5079473;28;20028;-74
2023/07/30 11:28:32;;;;;;;0.03;0.03;;;22.70;99.90;;;;;;5077763;28;20029;-75
2023/07/30 11:31:00;;;;;;;3.38;0.65;;;22.80;99.90;;;;;;5077653;28;20051;-75
2023/07/30 11:33:27;;;;;;;1.98;0.57;;;23.00;99.90;;;;;;5075247;28;20050;-75
2023/07/30 11:35:56;;;;;;;0.22;0.15;;;23.40;99.90;;;;;;5072797;28;20024;-75
2023/07/30 11:38:24;;;;;;;1.95;1.02;;;23.00;98.90;;;;;;5080534;28;20024;-75
2023/07/30 11:40:52;;;;;;;0.82;0.75;;;22.30;99.90;;;;;;5084180;28;20077;-74
2023/07/30 11:43:18;;;;;;;3.65;0.93;;;22.60;99.30;;;;;;5075326;28;20028;-73
2023/07/30 11:45:44;;;;;;;0.77;0.43;;;21.90;99.90;;;;;;5081896;28;20089;-75
2023/07/30 11:48:11;;;;;;;19.33;1.00;;;22.00;99.90;;;;;;5086167;28;20024;-75
2023/07/30 11:50:50;;;;;;;1.85;0.55;;;22.40;99.40;;;;;;5090517;28;20039;-75
2023/07/30 11:53:18;;;;;;;4.35;0.68;;;22.60;99.90;;;;;;5077069;28;20036;-75
2023/07/30 11:55:45;;;;;;;11.52;1.08;;;22.30;99.90;;;;;;5075193;28;20099;-74
2023/07/30 11:58:12;;;;;;;0.43;0.40;;;22.10;99.90;;;;;;5073278;28;20036;-75
2023/07/30 12:00:43;;;;;;;0.65;0.40;;;22.10;99.90;;;;;;5083316;28;20024;-72
2023/07/30 12:03:12;;;;;;;0.32;0.30;;;22.20;99.90;;;;;;5075070;28;20619;-73
2023/07/30 12:05:39;;;;;;;0.95;0.40;;;22.50;99.90;;;;;;5082004;28;20051;-74
2023/07/30 12:08:12;;;;;;;2.55;0.43;;;23.10;99.80;;;;;;5080522;28;20028;-72
2023/07/30 12:10:46;;;;;;;0.40;0.40;;;22.90;99.90;;;;;;5074786;28;20484;-74
2023/07/30 12:13:16;;;;;;;3.65;0.95;;;22.70;99.90;;;;;;5076438;28;20043;-74
2023/07/30 12:15:52;;;;;;;0.90;0.45;;;22.20;99.30;;;;;;5073988;28;20048;-74
2023/07/30 12:18:20;;;;;;;0.90;0.70;;;22.20;99.40;;;;;;5071833;28;20021;-72
2023/07/30 12:20:46;;;;;;;0.25;0.20;;;22.20;99.70;;;;;;5086469;28;20016;-72
2023/07/30 12:23:13;;;;;;;0.52;0.52;;;22.60;99.50;;;;;;5080386;28;20024;-74
2023/07/30 12:25:38;;;;;;;1.90;0.90;;;22.90;99.20;;;;;;5075492;28;20020;-74
2023/07/30 12:28:04;;;;;;;2.53;0.75;;;22.90;98.20;;;;;;5073103;28;20028;-75
2023/07/30 12:30:30;;;;;;;5.70;0.63;;;22.70;98.20;;;;;;5082134;28;20036;-75
2023/07/30 12:32:56;;;;;;;0.00;0.00;;;23.30;98.10;;;;;;5079676;28;20472;-74
2023/07/30 12:35:23;;;;;;;0.40;0.30;;;23.40;98.20;;;;;;5071168;28;20041;-75
2023/07/30 12:37:48;;;;;;;2.35;0.32;;;24.00;97.60;;;;;;5081334;28;20546;-73
2023/07/30 12:40:14;;;;;;;3.78;0.93;;;23.70;95.80;;;;;;5080648;28;20115;-74
2023/07/30 12:42:40;;;;;;;0.75;0.20;;;23.20;95.60;;;;;;5077194;28;20095;-75
2023/07/30 12:45:06;;;;;;;0.45;0.45;;;23.60;96.20;;;;;;5076832;28;20086;-73